createdAt,value
2022-11-16T00:00:13.389Z,86.94
2022-11-16T00:01:13.384Z,87.25
2022-11-16T00:02:13.526Z,87.04
2022-11-16T00:03:13.356Z,86.42
2022-11-16T00:04:13.346Z,86.42
2022-11-16T00:05:13.363Z,86.32
2022-11-16T00:06:13.322Z,86.52
2022-11-16T00:07:13.359Z,86.42
2022-11-16T00:08:13.290Z,86.63
2022-11-16T00:09:13.279Z,86.63
2022-11-16T00:10:13.277Z,86.73
2022-11-16T00:11:13.246Z,86.32
2022-11-16T00:12:13.268Z,87.04
2022-11-16T00:13:13.247Z,86.21
2022-11-16T00:14:13.206Z,85.80
2022-11-16T00:15:13.184Z,86.01
2022-11-16T00:16:13.200Z,86.01
2022-11-16T00:17:13.205Z,85.80
2022-11-16T00:18:13.295Z,86.21
2022-11-16T00:19:13.162Z,86.01
2022-11-16T00:20:13.157Z,85.70
2022-11-16T00:21:13.147Z,85.66
2022-11-16T00:22:13.119Z,85.60
2022-11-16T00:23:13.084Z,85.28
2022-11-16T00:24:13.088Z,85.18
2022-11-16T00:25:13.084Z,85.18
2022-11-16T00:26:13.059Z,85.28
2022-11-16T00:27:13.067Z,85.49
2022-11-16T00:28:13.035Z,85.49
2022-11-16T00:29:13.026Z,85.49
2022-11-16T00:30:12.980Z,85.60
2022-11-16T00:31:12.989Z,85.70
2022-11-16T00:32:12.997Z,85.39
2022-11-16T00:33:12.952Z,85.49
2022-11-16T00:34:12.939Z,85.18
2022-11-16T00:35:12.922Z,83.84
2022-11-16T00:36:12.913Z,84.11
2022-11-16T00:37:12.923Z,84.21
2022-11-16T00:38:12.894Z,84.42
2022-11-16T00:39:12.885Z,84.00
2022-11-16T00:40:12.877Z,84.11
2022-11-16T00:41:12.886Z,83.90
2022-11-16T00:42:12.862Z,83.80
2022-11-16T00:43:12.862Z,84.00
2022-11-16T00:44:12.805Z,84.21
2022-11-16T00:45:12.816Z,84.11
2022-11-16T00:46:12.804Z,83.90
2022-11-16T00:47:12.801Z,84.00
2022-11-16T00:48:12.753Z,84.11
2022-11-16T00:49:12.773Z,84.11
2022-11-16T00:50:12.731Z,84.11
2022-11-16T00:51:12.716Z,84.21
2022-11-16T00:52:12.697Z,84.73
2022-11-16T00:53:12.689Z,84.77
2022-11-16T00:54:12.725Z,84.52
2022-11-16T00:55:12.675Z,84.87
2022-11-16T00:56:12.646Z,84.87
2022-11-16T00:57:12.693Z,84.77
2022-11-16T00:58:12.628Z,84.15
2022-11-16T00:59:12.636Z,84.00
2022-11-16T01:00:12.597Z,83.49
2022-11-16T01:01:12.729Z,83.28
2022-11-16T01:02:12.557Z,83.49
2022-11-16T01:03:12.556Z,83.90
2022-11-16T01:04:12.563Z,83.86
2022-11-16T01:05:12.534Z,83.55
2022-11-16T01:06:12.505Z,83.45
2022-11-16T01:07:12.556Z,83.55
2022-11-16T01:08:12.478Z,83.14
2022-11-16T01:09:12.504Z,80.97
2022-11-16T01:10:12.459Z,79.90
2022-11-16T01:11:12.469Z,79.25
2022-11-16T01:12:12.431Z,79.14
2022-11-16T01:13:12.421Z,79.00
2022-11-16T01:14:12.430Z,78.80
2022-11-16T01:15:12.391Z,78.69
2022-11-16T01:16:12.376Z,78.38
2022-11-16T01:17:12.364Z,78.80
2022-11-16T01:18:12.357Z,78.18
2022-11-16T01:19:12.380Z,78.90
2022-11-16T01:20:12.319Z,79.62
2022-11-16T01:21:12.320Z,80.07
2022-11-16T01:22:12.292Z,80.07
2022-11-16T01:23:12.287Z,80.38
2022-11-16T01:24:12.306Z,80.79
2022-11-16T01:25:12.258Z,80.90
2022-11-16T01:26:12.245Z,80.48
2022-11-16T01:27:12.231Z,80.90
2022-11-16T01:28:12.215Z,81.21
2022-11-16T01:29:12.240Z,81.86
2022-11-16T01:30:12.201Z,81.96
2022-11-16T01:31:12.214Z,81.96
2022-11-16T01:32:12.168Z,81.66
2022-11-16T01:33:12.159Z,81.96
2022-11-16T01:34:12.147Z,81.76
2022-11-16T01:35:12.155Z,81.76
2022-11-16T01:36:12.125Z,82.48
2022-11-16T01:37:12.154Z,82.59
2022-11-16T01:38:12.088Z,82.69
2022-11-16T01:39:12.104Z,83.20
2022-11-16T01:40:12.055Z,83.62
2022-11-16T01:41:12.051Z,83.72
2022-11-16T01:42:12.165Z,84.28
2022-11-16T01:43:12.035Z,84.59
2022-11-16T01:44:12.009Z,84.48
2022-11-16T01:45:12.027Z,84.17
2022-11-16T01:46:11.990Z,83.76
2022-11-16T01:47:12.004Z,83.14
2022-11-16T01:48:11.997Z,83.04
2022-11-16T01:49:11.948Z,83.55
2022-11-16T01:50:11.939Z,83.41
2022-11-16T01:51:11.927Z,83.20
2022-11-16T01:52:11.901Z,83.10
2022-11-16T01:53:11.892Z,82.59
2022-11-16T01:54:11.870Z,82.38
2022-11-16T01:55:11.887Z,82.17
2022-11-16T01:56:11.847Z,82.17
2022-11-16T01:57:11.838Z,82.17
2022-11-16T01:58:11.813Z,81.96
2022-11-16T01:59:11.843Z,82.07
2022-11-16T02:00:11.808Z,81.41
2022-11-16T02:01:11.871Z,81.00
2022-11-16T02:02:11.765Z,81.93
2022-11-16T02:03:11.779Z,81.72
2022-11-16T02:04:11.743Z,81.62
2022-11-16T02:05:11.726Z,81.41
2022-11-16T02:06:11.742Z,82.14
2022-11-16T02:07:11.776Z,82.45
2022-11-16T02:08:11.688Z,82.03
2022-11-16T02:09:11.673Z,81.62
2022-11-16T02:10:11.677Z,81.41
2022-11-16T02:11:11.670Z,81.31
2022-11-16T02:12:11.661Z,81.62
2022-11-16T02:13:11.634Z,81.82
2022-11-16T02:14:11.630Z,81.62
2022-11-16T02:15:11.605Z,81.41
2022-11-16T02:16:11.612Z,81.41
2022-11-16T02:17:11.575Z,81.51
2022-11-16T02:18:11.582Z,81.41
2022-11-16T02:19:11.543Z,81.10
2022-11-16T02:20:11.526Z,81.00
2022-11-16T02:21:11.513Z,80.86
2022-11-16T02:22:11.534Z,80.58
2022-11-16T02:23:11.489Z,80.96
2022-11-16T02:24:11.500Z,80.69
2022-11-16T02:25:11.464Z,80.04
2022-11-16T02:26:11.435Z,79.83
2022-11-16T02:27:11.434Z,79.72
2022-11-16T02:28:11.418Z,79.52
2022-11-16T02:29:11.426Z,79.62
2022-11-16T02:30:11.394Z,79.62
2022-11-16T02:31:11.382Z,79.00
2022-11-16T02:32:11.351Z,77.25
2022-11-16T02:33:11.368Z,77.31
2022-11-16T02:34:11.339Z,77.62
2022-11-16T02:35:11.365Z,77.11
2022-11-16T02:36:11.310Z,76.59
2022-11-16T02:37:11.296Z,77.11
2022-11-16T02:38:11.277Z,77.01
2022-11-16T02:39:11.297Z,77.31
2022-11-16T02:40:11.252Z,77.31
2022-11-16T02:41:11.257Z,77.01
2022-11-16T02:42:11.226Z,77.11
2022-11-16T02:43:11.213Z,76.80
2022-11-16T02:44:11.191Z,76.80
2022-11-16T02:45:11.218Z,77.01
2022-11-16T02:46:11.186Z,77.01
2022-11-16T02:47:11.172Z,77.22
2022-11-16T02:48:11.137Z,77.42
2022-11-16T02:49:11.146Z,77.42
2022-11-16T02:50:11.111Z,77.62
2022-11-16T02:51:11.126Z,78.34
2022-11-16T02:52:11.093Z,78.55
2022-11-16T02:53:11.072Z,78.55
2022-11-16T02:54:11.063Z,78.34
2022-11-16T02:55:11.089Z,78.66
2022-11-16T02:56:11.080Z,78.76
2022-11-16T02:57:11.023Z,78.45
2022-11-16T02:58:11.006Z,78.76
2022-11-16T02:59:15.242Z,78.97
2022-11-16T03:00:10.977Z,79.21
2022-11-16T03:01:11.005Z,79.52
2022-11-16T03:02:10.980Z,79.31
2022-11-16T03:03:10.956Z,79.52
2022-11-16T03:04:10.939Z,80.04
2022-11-16T03:05:10.912Z,80.04
2022-11-16T03:06:10.904Z,79.93
2022-11-16T03:07:10.943Z,79.72
2022-11-16T03:08:10.906Z,79.83
2022-11-16T03:09:10.866Z,79.21
2022-11-16T03:10:10.842Z,78.69
2022-11-16T03:11:10.833Z,78.59
2022-11-16T03:12:10.831Z,78.90
2022-11-16T03:13:10.846Z,79.72
2022-11-16T03:14:10.816Z,79.52
2022-11-16T03:15:10.793Z,80.14
2022-11-16T03:16:10.776Z,79.83
2022-11-16T03:17:10.769Z,80.24
2022-11-16T03:18:10.778Z,80.04
2022-11-16T03:19:10.745Z,80.55
2022-11-16T03:20:10.712Z,80.55
2022-11-16T03:21:10.706Z,81.21
2022-11-16T03:22:10.705Z,81.62
2022-11-16T03:23:10.703Z,81.82
2022-11-16T03:24:10.687Z,81.62
2022-11-16T03:25:10.647Z,81.62
2022-11-16T03:26:10.641Z,81.21
2022-11-16T03:27:10.628Z,81.41
2022-11-16T03:28:10.602Z,81.72
2022-11-16T03:29:10.628Z,81.82
2022-11-16T03:30:10.584Z,81.82
2022-11-16T03:31:10.562Z,81.72
2022-11-16T03:32:10.562Z,81.62
2022-11-16T03:33:10.554Z,82.03
2022-11-16T03:34:10.546Z,81.56
2022-11-16T03:35:10.516Z,81.35
2022-11-16T03:36:10.494Z,81.00
2022-11-16T03:37:10.487Z,80.07
2022-11-16T03:38:10.479Z,81.62
2022-11-16T03:39:10.511Z,81.51
2022-11-16T03:40:10.479Z,81.31
2022-11-16T03:41:10.444Z,81.31
2022-11-16T03:42:10.429Z,81.10
2022-11-16T03:43:10.477Z,81.41
2022-11-16T03:44:10.420Z,81.51
2022-11-16T03:45:10.376Z,81.41
2022-11-16T03:46:10.384Z,81.21
2022-11-16T03:47:10.356Z,80.48
2022-11-16T03:48:10.331Z,80.48
2022-11-16T03:49:10.369Z,80.38
2022-11-16T03:50:10.305Z,78.31
2022-11-16T03:51:10.316Z,79.45
2022-11-16T03:52:10.276Z,77.87
2022-11-16T03:53:10.265Z,79.11
2022-11-16T03:54:10.275Z,79.83
2022-11-16T03:55:10.239Z,79.21
2022-11-16T03:56:10.254Z,79.83
2022-11-16T03:57:10.212Z,79.93
2022-11-16T03:58:10.199Z,79.83
2022-11-16T03:59:10.182Z,79.93
2022-11-16T04:00:10.219Z,80.34
2022-11-16T04:01:10.282Z,79.00
2022-11-16T04:02:10.142Z,78.80
2022-11-16T04:03:10.131Z,79.21
2022-11-16T04:04:10.112Z,79.21
2022-11-16T04:05:10.129Z,79.52
2022-11-16T04:06:10.101Z,79.52
2022-11-16T04:07:10.137Z,79.62
2022-11-16T04:08:10.062Z,79.52
2022-11-16T04:09:10.059Z,78.90
2022-11-16T04:10:10.053Z,78.69
2022-11-16T04:11:10.024Z,78.80
2022-11-16T04:12:10.011Z,79.41
2022-11-16T04:13:10.011Z,79.52
2022-11-16T04:14:09.986Z,79.72
2022-11-16T04:15:09.994Z,80.04
2022-11-16T04:16:09.976Z,80.14
2022-11-16T04:17:09.940Z,80.14
2022-11-16T04:18:09.952Z,80.14
2022-11-16T04:19:09.908Z,80.34
2022-11-16T04:20:09.901Z,80.44
2022-11-16T04:21:09.909Z,80.14
2022-11-16T04:22:09.884Z,80.34
2022-11-16T04:23:09.907Z,80.34
2022-11-16T04:24:09.844Z,80.65
2022-11-16T04:25:09.832Z,80.14
2022-11-16T04:26:09.822Z,80.86
2022-11-16T04:27:09.818Z,81.79
2022-11-16T04:28:09.835Z,82.61
2022-11-16T04:29:09.785Z,82.20
2022-11-16T04:30:09.795Z,82.10
2022-11-16T04:31:09.748Z,82.40
2022-11-16T04:32:09.755Z,82.92
2022-11-16T04:33:09.767Z,83.75
2022-11-16T04:34:09.712Z,83.95
2022-11-16T04:35:09.718Z,84.99
2022-11-16T04:36:09.702Z,85.60
2022-11-16T04:37:09.669Z,85.71
2022-11-16T04:38:09.696Z,85.39
2022-11-16T04:39:09.677Z,85.39
2022-11-16T04:40:09.642Z,86.02
2022-11-16T04:41:09.656Z,86.12
2022-11-16T04:42:09.662Z,86.32
2022-11-16T04:43:09.620Z,86.63
2022-11-16T04:44:09.615Z,86.74
2022-11-16T04:45:09.562Z,86.43
2022-11-16T04:46:09.561Z,86.84
2022-11-16T04:47:09.570Z,86.74
2022-11-16T04:48:09.646Z,86.78
2022-11-16T04:49:09.543Z,86.47
2022-11-16T04:50:09.505Z,86.53
2022-11-16T04:51:09.483Z,86.63
2022-11-16T04:52:09.491Z,87.05
2022-11-16T04:53:09.473Z,87.26
2022-11-16T04:54:09.472Z,87.81
2022-11-16T04:55:09.428Z,88.22
2022-11-16T04:56:09.420Z,88.43
2022-11-16T04:57:09.436Z,88.64
2022-11-16T04:58:09.397Z,88.74
2022-11-16T04:59:09.460Z,89.15
2022-11-16T05:00:09.410Z,89.29
2022-11-16T05:01:09.388Z,89.40
2022-11-16T05:02:09.344Z,89.40
2022-11-16T05:03:09.327Z,89.50
2022-11-16T05:04:09.320Z,89.29
2022-11-16T05:05:09.349Z,89.29
2022-11-16T05:06:09.277Z,89.29
2022-11-16T05:07:09.307Z,89.29
2022-11-16T05:08:09.442Z,89.29
2022-11-16T05:09:09.253Z,89.19
2022-11-16T05:10:09.273Z,89.19
2022-11-16T05:11:09.244Z,89.29
2022-11-16T05:12:09.253Z,89.29
2022-11-16T05:13:09.209Z,89.19
2022-11-16T05:14:09.227Z,89.40
2022-11-16T05:15:09.157Z,89.19
2022-11-16T05:16:09.177Z,89.09
2022-11-16T05:17:09.150Z,89.19
2022-11-16T05:18:09.154Z,89.19
2022-11-16T05:19:09.112Z,89.19
2022-11-16T05:20:09.095Z,89.19
2022-11-16T05:21:09.081Z,88.98
2022-11-16T05:22:09.102Z,89.09
2022-11-16T05:23:09.062Z,89.09
2022-11-16T05:24:09.077Z,89.19
2022-11-16T05:25:09.049Z,89.29
2022-11-16T05:26:09.054Z,89.50
2022-11-16T05:27:09.040Z,89.50
2022-11-16T05:28:09.019Z,89.29
2022-11-16T05:29:08.972Z,89.29
2022-11-16T05:30:08.966Z,89.40
2022-11-16T05:31:08.979Z,89.44
2022-11-16T05:32:08.945Z,89.75
2022-11-16T05:33:08.949Z,89.65
2022-11-16T05:34:08.909Z,89.34
2022-11-16T05:35:08.892Z,89.44
2022-11-16T05:36:08.898Z,89.40
2022-11-16T05:37:08.870Z,89.92
2022-11-16T05:38:08.879Z,89.92
2022-11-16T05:39:08.881Z,89.50
2022-11-16T05:40:08.831Z,89.50
2022-11-16T05:41:08.837Z,89.71
2022-11-16T05:42:08.818Z,89.81
2022-11-16T05:43:08.844Z,89.50
2022-11-16T05:44:08.786Z,89.50
2022-11-16T05:45:08.756Z,89.40
2022-11-16T05:46:08.796Z,89.40
2022-11-16T05:47:08.738Z,89.61
2022-11-16T05:48:08.759Z,89.61
2022-11-16T05:49:08.709Z,89.61
2022-11-16T05:50:08.695Z,89.81
2022-11-16T05:51:08.693Z,89.71
2022-11-16T05:52:08.673Z,90.22
2022-11-16T05:53:08.683Z,90.12
2022-11-16T05:54:08.651Z,90.33
2022-11-16T05:55:08.632Z,90.02
2022-11-16T05:56:08.781Z,89.92
2022-11-16T05:57:08.625Z,90.02
2022-11-16T05:58:08.625Z,90.02
2022-11-16T05:59:13.715Z,90.22
2022-11-16T06:00:08.568Z,90.33
2022-11-16T06:01:08.542Z,89.92
2022-11-16T06:02:08.550Z,89.92
2022-11-16T06:03:08.558Z,89.81
2022-11-16T06:04:08.535Z,89.81
2022-11-16T06:05:08.506Z,90.02
2022-11-16T06:06:08.489Z,90.02
2022-11-16T06:07:08.611Z,90.95
2022-11-16T06:08:08.469Z,90.84
2022-11-16T06:09:08.464Z,90.95
2022-11-16T06:10:08.442Z,91.20
2022-11-16T06:11:08.419Z,91.30
2022-11-16T06:12:08.410Z,91.09
2022-11-16T06:13:08.381Z,91.30
2022-11-16T06:14:08.434Z,91.50
2022-11-16T06:15:08.392Z,91.61
2022-11-16T06:16:08.350Z,91.71
2022-11-16T06:17:08.347Z,91.30
2022-11-16T06:18:08.323Z,91.50
2022-11-16T06:19:08.317Z,91.71
2022-11-16T06:20:08.336Z,92.02
2022-11-16T06:21:08.293Z,92.02
2022-11-16T06:22:08.272Z,91.50
2022-11-16T06:23:08.313Z,91.40
2022-11-16T06:24:08.247Z,91.30
2022-11-16T06:25:08.235Z,91.61
2022-11-16T06:26:08.224Z,91.71
2022-11-16T06:27:08.238Z,91.71
2022-11-16T06:28:08.488Z,91.40
2022-11-16T06:29:08.179Z,91.20
2022-11-16T06:30:08.188Z,91.30
2022-11-16T06:31:08.148Z,91.20
2022-11-16T06:32:08.136Z,90.99
2022-11-16T06:33:08.143Z,91.09
2022-11-16T06:34:08.116Z,90.99
2022-11-16T06:35:08.114Z,90.58
2022-11-16T06:36:08.090Z,90.78
2022-11-16T06:37:08.078Z,90.95
2022-11-16T06:38:08.086Z,90.89
2022-11-16T06:39:08.040Z,91.05
2022-11-16T06:40:08.032Z,91.20
2022-11-16T06:41:08.056Z,91.61
2022-11-16T06:42:08.039Z,91.71
2022-11-16T06:43:07.988Z,92.23
2022-11-16T06:44:08.027Z,92.44
2022-11-16T06:45:07.980Z,92.33
2022-11-16T06:46:07.982Z,92.13
2022-11-16T06:47:07.932Z,92.23
2022-11-16T06:48:07.924Z,92.13
2022-11-16T06:49:07.902Z,92.02
2022-11-16T06:50:07.913Z,92.13
2022-11-16T06:51:07.914Z,91.92
2022-11-16T06:52:07.867Z,92.23
2022-11-16T06:53:07.852Z,92.23
2022-11-16T06:54:07.864Z,91.92
2022-11-16T06:55:07.845Z,91.71
2022-11-16T06:56:07.835Z,91.82
2022-11-16T06:57:07.800Z,91.61
2022-11-16T06:58:07.799Z,91.77
2022-11-16T06:59:07.800Z,91.88
2022-11-16T07:00:07.793Z,91.92
2022-11-16T07:01:07.749Z,92.02
2022-11-16T07:02:07.784Z,92.40
2022-11-16T07:03:07.720Z,92.60
2022-11-16T07:04:07.734Z,92.29
2022-11-16T07:05:07.697Z,91.88
2022-11-16T07:06:07.699Z,92.08
2022-11-16T07:07:07.702Z,92.19
2022-11-16T07:08:07.653Z,92.29
2022-11-16T07:09:07.670Z,91.98
2022-11-16T07:10:07.630Z,91.56
2022-11-16T07:11:07.620Z,91.36
2022-11-16T07:12:07.607Z,91.56
2022-11-16T07:13:07.607Z,91.46
2022-11-16T07:14:07.588Z,91.67
2022-11-16T07:15:07.593Z,91.88
2022-11-16T07:16:07.554Z,91.98
2022-11-16T07:17:09.717Z,92.08
2022-11-16T07:18:07.552Z,92.08
2022-11-16T07:19:07.507Z,92.29
2022-11-16T07:20:07.561Z,92.29
2022-11-16T07:21:07.474Z,92.29
2022-11-16T07:22:07.464Z,92.29
2022-11-16T07:23:11.440Z,92.50
2022-11-16T07:24:07.459Z,92.50
2022-11-16T07:25:07.456Z,92.70
2022-11-16T07:26:07.447Z,92.80
2022-11-16T07:27:07.393Z,92.60
2022-11-16T07:28:07.388Z,92.50
2022-11-16T07:29:07.389Z,92.70
2022-11-16T07:30:07.371Z,92.70
2022-11-16T07:31:07.365Z,92.80
2022-11-16T07:32:07.366Z,92.70
2022-11-16T07:33:07.366Z,92.80
2022-11-16T07:34:07.310Z,92.60
2022-11-16T07:35:07.411Z,92.80
2022-11-16T07:36:07.296Z,92.50
2022-11-16T07:37:07.311Z,92.50
2022-11-16T07:38:07.263Z,92.70
2022-11-16T07:39:07.257Z,92.40
2022-11-16T07:40:07.294Z,92.40
2022-11-16T07:41:07.206Z,92.50
2022-11-16T07:42:07.248Z,92.29
2022-11-16T07:43:07.185Z,92.08
2022-11-16T07:44:10.947Z,92.40
2022-11-16T07:45:07.156Z,92.40
2022-11-16T07:46:41.274Z,92.40
2022-11-16T07:47:07.161Z,92.29
2022-11-16T07:48:07.210Z,92.50
2022-11-16T07:49:11.320Z,92.80
2022-11-16T07:50:07.087Z,92.66
2022-11-16T07:51:07.145Z,92.70
2022-11-16T07:52:07.141Z,92.70
2022-11-16T07:53:07.054Z,92.60
2022-11-16T07:54:07.079Z,92.60
2022-11-16T07:55:07.031Z,92.46
2022-11-16T07:56:07.057Z,92.86
2022-11-16T07:57:07.003Z,92.97
2022-11-16T07:58:07.019Z,92.76
2022-11-16T07:59:06.979Z,92.55
2022-11-16T08:00:06.959Z,92.76
2022-11-16T08:01:06.939Z,92.97
2022-11-16T08:02:06.957Z,93.07
2022-11-16T08:03:06.947Z,92.86
2022-11-16T08:04:06.910Z,92.97
2022-11-16T08:05:06.934Z,93.79
2022-11-16T08:06:06.871Z,94.00
2022-11-16T08:07:06.924Z,93.73
2022-11-16T08:08:06.941Z,93.63
2022-11-16T08:09:06.870Z,93.73
2022-11-16T08:10:06.890Z,93.94
2022-11-16T08:11:06.820Z,94.04
2022-11-16T08:12:06.818Z,94.00
2022-11-16T08:13:06.787Z,94.00
2022-11-16T08:14:06.803Z,94.21
2022-11-16T08:15:06.758Z,94.21
2022-11-16T08:16:06.855Z,94.42
2022-11-16T08:17:06.740Z,94.42
2022-11-16T08:18:06.719Z,94.31
2022-11-16T08:19:06.778Z,94.21
2022-11-16T08:20:06.682Z,94.10
2022-11-16T08:21:06.748Z,94.10
2022-11-16T08:22:06.658Z,93.79
2022-11-16T08:23:06.652Z,94.10
2022-11-16T08:24:06.674Z,94.17
2022-11-16T08:25:06.623Z,94.27
2022-11-16T08:26:06.612Z,94.27
2022-11-16T08:27:06.616Z,94.06
2022-11-16T08:28:06.586Z,94.17
2022-11-16T08:29:06.597Z,94.17
2022-11-16T08:30:06.607Z,93.85
2022-11-16T08:31:06.567Z,94.37
2022-11-16T08:32:06.557Z,94.57
2022-11-16T08:33:06.568Z,94.78
2022-11-16T08:34:06.534Z,94.89
2022-11-16T08:35:06.490Z,95.09
2022-11-16T08:36:12.533Z,95.45
2022-11-16T08:37:06.499Z,95.45
2022-11-16T08:38:06.443Z,95.24
2022-11-16T08:39:06.515Z,95.14
2022-11-16T08:40:06.425Z,94.93
2022-11-16T08:41:06.419Z,94.82
2022-11-16T08:42:06.401Z,94.82
2022-11-16T08:43:06.380Z,94.78
2022-11-16T08:44:06.396Z,94.57
2022-11-16T08:45:06.394Z,94.57
2022-11-16T08:46:06.369Z,94.57
2022-11-16T08:47:06.371Z,94.89
2022-11-16T08:48:06.333Z,95.20
2022-11-16T08:49:06.303Z,95.61
2022-11-16T08:50:06.305Z,95.30
2022-11-16T08:51:21.755Z,95.50
2022-11-16T08:52:06.304Z,95.61
2022-11-16T08:53:06.262Z,95.61
2022-11-16T08:54:06.234Z,95.50
2022-11-16T08:55:06.217Z,95.81
2022-11-16T08:56:06.198Z,96.02
2022-11-16T08:57:06.248Z,95.81
2022-11-16T08:58:06.174Z,95.92
2022-11-16T08:59:06.179Z,95.92
2022-11-16T09:00:06.161Z,95.67
2022-11-16T09:01:06.158Z,95.56
2022-11-16T09:02:06.227Z,95.46
2022-11-16T09:03:06.131Z,95.46
2022-11-16T09:04:06.100Z,95.46
2022-11-16T09:05:06.116Z,95.46
2022-11-16T09:06:06.072Z,95.56
2022-11-16T09:07:06.197Z,95.25
2022-11-16T09:08:06.037Z,95.36
2022-11-16T09:09:06.090Z,95.46
2022-11-16T09:10:06.039Z,95.67
2022-11-16T09:11:06.019Z,95.56
2022-11-16T09:12:06.008Z,95.67
2022-11-16T09:13:06.005Z,95.98
2022-11-16T09:14:05.968Z,96.39
2022-11-16T09:15:05.943Z,96.39
2022-11-16T09:16:05.935Z,96.18
2022-11-16T09:17:05.917Z,95.87
2022-11-16T09:18:05.954Z,95.87
2022-11-16T09:19:05.907Z,96.03
2022-11-16T09:20:05.880Z,96.14
2022-11-16T09:21:05.869Z,96.14
2022-11-16T09:22:05.863Z,96.03
2022-11-16T09:23:05.877Z,96.03
2022-11-16T09:24:06.027Z,95.93
2022-11-16T09:25:05.860Z,95.93
2022-11-16T09:26:05.801Z,96.03
2022-11-16T09:27:05.799Z,95.93
2022-11-16T09:28:05.770Z,95.73
2022-11-16T09:29:05.788Z,95.68
2022-11-16T09:30:05.751Z,95.68
2022-11-16T09:31:05.737Z,95.78
2022-11-16T09:32:05.718Z,95.78
2022-11-16T09:33:05.742Z,95.78
2022-11-16T09:34:05.692Z,95.68
2022-11-16T09:35:05.678Z,95.89
2022-11-16T09:36:05.664Z,95.68
2022-11-16T09:37:05.673Z,95.17
2022-11-16T09:38:05.638Z,94.96
2022-11-16T09:40:05.618Z,94.85
2022-11-16T09:41:05.640Z,94.51
2022-11-16T09:42:05.575Z,94.51
2022-11-16T09:43:05.603Z,94.40
2022-11-16T09:44:05.549Z,94.40
2022-11-16T09:45:05.580Z,94.09
2022-11-16T09:46:05.560Z,93.88
2022-11-16T09:47:05.515Z,93.79
2022-11-16T09:48:05.503Z,93.99
2022-11-16T09:49:13.976Z,93.88
2022-11-16T09:50:05.478Z,93.99
2022-11-16T09:51:05.471Z,94.71
2022-11-16T09:52:05.471Z,94.81
2022-11-16T09:53:05.460Z,94.92
2022-11-16T09:54:05.447Z,94.81
2022-11-16T09:55:05.412Z,94.71
2022-11-16T09:56:05.403Z,94.51
2022-11-16T09:57:10.981Z,94.09
2022-11-16T09:58:05.393Z,94.09
2022-11-16T09:59:05.522Z,94.30
2022-11-16T10:00:05.338Z,94.20
2022-11-16T10:01:05.432Z,94.20
2022-11-16T10:02:05.309Z,94.51
2022-11-16T10:03:05.462Z,94.81
2022-11-16T10:04:05.312Z,94.92
2022-11-16T10:05:05.275Z,95.12
2022-11-16T10:06:05.277Z,95.12
2022-11-16T10:07:05.276Z,95.02
2022-11-16T10:08:05.252Z,95.23
2022-11-16T10:09:05.212Z,95.33
2022-11-16T10:10:05.220Z,95.18
2022-11-16T10:11:05.182Z,94.98
2022-11-16T10:12:05.165Z,94.67
2022-11-16T10:13:05.171Z,94.36
2022-11-16T10:14:05.168Z,94.26
2022-11-16T10:15:05.152Z,94.36
2022-11-16T10:16:05.119Z,94.67
2022-11-16T10:17:05.105Z,94.87
2022-11-16T10:18:05.098Z,94.87
2022-11-16T10:19:05.106Z,94.67
2022-11-16T10:20:05.068Z,94.46
2022-11-16T10:21:05.091Z,94.46
2022-11-16T10:22:05.037Z,94.36
2022-11-16T10:23:05.013Z,94.56
2022-11-16T10:24:05.016Z,94.87
2022-11-16T10:25:05.052Z,94.98
2022-11-16T10:26:04.973Z,95.28
2022-11-16T10:27:04.978Z,95.28
2022-11-16T10:28:04.938Z,95.18
2022-11-16T10:29:04.954Z,95.18
2022-11-16T10:30:04.952Z,95.08
2022-11-16T10:31:04.928Z,94.98
2022-11-16T10:32:04.896Z,95.18
2022-11-16T10:33:10.738Z,94.98
2022-11-16T10:34:04.891Z,95.08
2022-11-16T10:35:04.853Z,95.18
2022-11-16T10:36:04.869Z,94.87
2022-11-16T10:37:04.841Z,94.77
2022-11-16T10:38:04.820Z,95.08
2022-11-16T10:39:04.809Z,95.34
2022-11-16T10:40:04.826Z,95.24
2022-11-16T10:41:04.786Z,95.03
2022-11-16T10:42:07.739Z,95.03
2022-11-16T10:43:04.740Z,95.24
2022-11-16T10:44:04.734Z,95.34
2022-11-16T10:45:04.713Z,95.55
2022-11-16T10:46:04.733Z,95.55
2022-11-16T10:47:04.737Z,95.75
2022-11-16T10:48:04.710Z,95.65
2022-11-16T10:49:04.674Z,95.34
2022-11-16T10:50:04.648Z,95.24
2022-11-16T10:51:04.670Z,95.24
2022-11-16T10:52:04.632Z,95.65
2022-11-16T10:53:04.614Z,95.55
2022-11-16T10:54:04.614Z,95.65
2022-11-16T10:55:04.583Z,95.71
2022-11-16T10:56:04.605Z,95.71
2022-11-16T10:57:04.563Z,95.61
2022-11-16T10:58:04.553Z,95.71
2022-11-16T10:59:04.541Z,96.02
2022-11-16T11:00:06.645Z,96.02
2022-11-16T11:01:04.611Z,95.71
2022-11-16T11:02:04.525Z,95.71
2022-11-16T11:03:04.537Z,95.81
2022-11-16T11:04:04.480Z,95.71
2022-11-16T11:05:04.502Z,95.50
2022-11-16T11:06:04.435Z,95.61
2022-11-16T11:07:04.494Z,95.67
2022-11-16T11:08:04.400Z,95.50
2022-11-16T11:09:04.426Z,95.46
2022-11-16T11:10:04.383Z,95.97
2022-11-16T11:11:04.402Z,96.08
2022-11-16T11:12:04.378Z,95.81
2022-11-16T11:13:04.338Z,95.61
2022-11-16T11:14:04.330Z,95.50
2022-11-16T11:15:04.310Z,95.50
2022-11-16T11:16:04.359Z,95.71
2022-11-16T11:17:04.284Z,95.30
2022-11-16T11:18:04.282Z,95.09
2022-11-16T11:19:04.263Z,95.09
2022-11-16T11:20:04.240Z,95.20
2022-11-16T11:21:04.257Z,95.30
2022-11-16T11:22:04.215Z,95.20
2022-11-16T11:23:04.221Z,95.30
2022-11-16T11:24:37.364Z,95.30
2022-11-16T11:25:04.211Z,95.40
2022-11-16T11:26:04.176Z,95.81
2022-11-16T11:27:04.166Z,95.81
2022-11-16T11:28:04.170Z,96.02
2022-11-16T11:29:04.134Z,96.02
2022-11-16T11:30:04.102Z,95.92
2022-11-16T11:31:04.095Z,96.02
2022-11-16T11:32:04.079Z,96.12
2022-11-16T11:33:04.073Z,96.12
2022-11-16T11:34:04.107Z,96.02
2022-11-16T11:35:04.087Z,96.02
2022-11-16T11:36:04.032Z,96.12
2022-11-16T11:37:04.029Z,96.12
2022-11-16T11:38:07.990Z,96.12
2022-11-16T11:39:04.148Z,96.28
2022-11-16T11:40:03.984Z,96.28
2022-11-16T11:41:03.963Z,96.48
2022-11-16T11:42:03.948Z,95.97
2022-11-16T11:43:03.947Z,95.97
2022-11-16T11:44:03.917Z,96.28
2022-11-16T11:45:03.923Z,96.39
2022-11-16T11:46:03.918Z,96.28
2022-11-16T11:47:50.424Z,96.18
2022-11-16T11:48:03.870Z,96.28
2022-11-16T11:49:03.851Z,96.18
2022-11-16T11:50:03.872Z,96.28
2022-11-16T11:51:03.861Z,96.28
2022-11-16T11:52:03.844Z,96.39
2022-11-16T11:53:03.843Z,96.84
2022-11-16T11:54:03.791Z,97.25
2022-11-16T11:55:03.773Z,97.56
2022-11-16T11:56:03.754Z,97.36
2022-11-16T11:57:03.773Z,97.45
2022-11-16T11:58:03.751Z,97.52
2022-11-16T11:59:03.716Z,97.56
2022-11-16T12:00:03.692Z,97.31
2022-11-16T12:01:03.681Z,97.20
2022-11-16T12:02:03.708Z,97.00
2022-11-16T12:03:03.716Z,96.80
2022-11-16T12:04:03.704Z,96.80
2022-11-16T12:05:03.658Z,96.90
2022-11-16T12:06:03.653Z,96.69
2022-11-16T12:07:03.667Z,96.59
2022-11-16T12:08:03.617Z,96.59
2022-11-16T12:09:03.581Z,96.59
2022-11-16T12:10:03.627Z,96.75
2022-11-16T12:11:03.545Z,96.75
2022-11-16T12:12:03.538Z,96.85
2022-11-16T12:13:03.555Z,97.00
2022-11-16T12:14:03.521Z,97.31
2022-11-16T12:15:03.516Z,97.52
2022-11-16T12:16:03.476Z,97.72
2022-11-16T12:17:03.487Z,97.92
2022-11-16T12:18:03.486Z,97.92
2022-11-16T12:19:03.460Z,97.92
2022-11-16T12:20:03.433Z,97.82
2022-11-16T12:21:03.412Z,97.62
2022-11-16T12:22:03.437Z,97.82
2022-11-16T12:23:04.444Z,97.82
2022-11-16T12:24:03.388Z,97.82
2022-11-16T12:25:03.359Z,97.72
2022-11-16T12:26:03.358Z,97.57
2022-11-16T12:27:03.355Z,97.57
2022-11-16T12:28:03.312Z,97.27
2022-11-16T12:29:03.326Z,96.95
2022-11-16T12:30:03.303Z,96.65
2022-11-16T12:31:03.273Z,96.23
2022-11-16T12:32:03.275Z,96.14
2022-11-16T12:33:03.285Z,96.14
2022-11-16T12:34:03.246Z,96.23
2022-11-16T12:35:03.221Z,96.23
2022-11-16T12:36:03.249Z,96.44
2022-11-16T12:37:03.202Z,96.14
2022-11-16T12:38:03.178Z,96.03
2022-11-16T12:39:03.170Z,96.09
2022-11-16T12:40:03.155Z,96.19
2022-11-16T12:41:03.179Z,96.09
2022-11-16T12:42:03.163Z,95.68
2022-11-16T12:43:03.128Z,95.21
2022-11-16T12:44:03.107Z,95.01
2022-11-16T12:45:03.102Z,94.80
2022-11-16T12:46:03.082Z,94.59
2022-11-16T12:47:03.087Z,94.49
2022-11-16T12:48:03.062Z,94.70
2022-11-16T12:49:03.074Z,94.70
2022-11-16T12:50:03.019Z,94.70
2022-11-16T12:51:03.025Z,94.59
2022-11-16T12:52:02.993Z,94.49
2022-11-16T12:53:02.974Z,94.39